createdAt,value
2023-04-06T00:00:41.505Z,1.33
2023-04-06T00:03:13.481Z,1.60
2023-04-06T00:05:45.048Z,1.23
2023-04-06T00:08:16.868Z,1.30
2023-04-06T00:10:48.368Z,1.08
2023-04-06T00:13:20.199Z,1.02
2023-04-06T00:15:51.666Z,1.17
2023-04-06T00:18:23.465Z,1.27
2023-04-06T00:20:54.957Z,1.40
2023-04-06T00:23:26.702Z,1.70
2023-04-06T00:25:58.176Z,1.45
2023-04-06T00:28:29.675Z,0.85
2023-04-06T00:31:01.131Z,1.30
2023-04-06T00:33:32.626Z,1.48
2023-04-06T00:36:04.112Z,1.50
2023-04-06T00:38:35.613Z,1.75
2023-04-06T00:41:07.140Z,1.27
2023-04-06T00:43:38.980Z,1.38
2023-04-06T00:46:10.518Z,1.07
2023-04-06T00:48:42.628Z,1.20
2023-04-06T00:51:14.280Z,1.67
2023-04-06T00:53:46.143Z,1.83
2023-04-06T00:56:17.647Z,0.80
2023-04-06T00:58:49.440Z,0.70
2023-04-06T01:01:21.024Z,1.23
2023-04-06T01:03:52.962Z,1.42
2023-04-06T01:06:24.433Z,1.60
2023-04-06T01:08:56.227Z,1.58
2023-04-06T01:11:27.718Z,0.77
2023-04-06T01:13:59.399Z,1.88
2023-04-06T01:16:31.001Z,1.30
2023-04-06T01:19:02.809Z,0.95
2023-04-06T01:21:34.286Z,1.42
2023-04-06T01:24:06.174Z,0.95
2023-04-06T01:26:37.647Z,0.90
2023-04-06T01:29:09.512Z,1.77
2023-04-06T01:31:41.244Z,1.00
2023-04-06T01:34:13.362Z,1.20
2023-04-06T01:36:44.887Z,1.08
2023-04-06T01:39:16.682Z,1.00
2023-04-06T01:41:48.151Z,1.00
2023-04-06T01:44:20.052Z,1.48
2023-04-06T01:46:51.675Z,1.57
2023-04-06T01:49:23.580Z,1.33
2023-04-06T01:51:55.041Z,1.13
2023-04-06T01:54:26.563Z,0.82
2023-04-06T01:56:58.129Z,0.80
2023-04-06T01:59:29.699Z,1.10
2023-04-06T02:02:01.251Z,0.77
2023-04-06T02:04:32.749Z,0.93
2023-04-06T02:07:04.244Z,0.63
2023-04-06T02:09:35.720Z,1.25
2023-04-06T02:12:07.189Z,1.15
2023-04-06T02:14:38.941Z,0.65
2023-04-06T02:17:10.390Z,1.08
2023-04-06T02:19:42.233Z,0.88
2023-04-06T02:22:13.677Z,1.27
2023-04-06T02:24:45.394Z,0.90
2023-04-06T02:27:16.861Z,1.38
2023-04-06T02:29:48.664Z,1.40
2023-04-06T02:32:20.107Z,0.80
2023-04-06T02:34:51.862Z,1.90
2023-04-06T02:37:23.290Z,1.08
2023-04-06T02:39:55.171Z,1.52
2023-04-06T02:42:26.967Z,1.03
2023-04-06T02:44:58.415Z,1.10
2023-04-06T02:47:30.019Z,1.60
2023-04-06T02:50:01.497Z,1.17
2023-04-06T02:52:32.969Z,1.23
2023-04-06T02:55:04.462Z,1.02
2023-04-06T02:57:35.942Z,0.93
2023-04-06T03:00:07.428Z,1.38
2023-04-06T03:02:39.332Z,1.42
2023-04-06T03:05:10.838Z,1.27
2023-04-06T03:07:42.641Z,0.80
2023-04-06T03:10:14.325Z,1.77
2023-04-06T03:12:46.097Z,0.80
2023-04-06T03:15:17.517Z,1.30
2023-04-06T03:17:49.339Z,1.13
2023-04-06T03:20:20.830Z,1.17
2023-04-06T03:22:52.611Z,1.42
2023-04-06T03:25:24.094Z,0.70
2023-04-06T03:27:55.556Z,1.17
2023-04-06T03:30:26.998Z,1.50
2023-04-06T03:32:58.796Z,1.73
2023-04-06T03:35:30.298Z,1.23
2023-04-06T03:38:02.112Z,1.38
2023-04-06T03:40:33.564Z,1.20
2023-04-06T03:43:05.446Z,1.17
2023-04-06T03:45:38.362Z,1.85
2023-04-06T03:48:09.922Z,2.00
2023-04-06T03:50:41.673Z,1.25
2023-04-06T03:53:13.110Z,1.45
2023-04-06T03:55:44.854Z,1.95
2023-04-06T03:58:16.300Z,1.20
2023-04-06T04:00:48.006Z,2.50
2023-04-06T04:03:19.517Z,1.90
2023-04-06T04:05:51.294Z,1.20
2023-04-06T04:08:22.729Z,1.70
2023-04-06T04:10:54.366Z,2.17
2023-04-06T04:13:25.815Z,2.83
2023-04-06T04:15:57.719Z,2.53
2023-04-06T04:18:29.147Z,1.37
2023-04-06T04:21:00.822Z,2.28
2023-04-06T04:23:32.280Z,1.63
2023-04-06T04:26:04.071Z,2.85
2023-04-06T04:28:35.525Z,2.43
2023-04-06T04:31:07.301Z,1.92
2023-04-06T04:33:38.741Z,1.30
2023-04-06T04:36:10.517Z,1.80
2023-04-06T04:38:41.960Z,1.67
2023-04-06T04:41:13.730Z,2.78
2023-04-06T04:43:45.164Z,1.63
2023-04-06T04:46:17.004Z,2.13
2023-04-06T04:48:48.503Z,2.20
2023-04-06T04:51:20.164Z,1.98
2023-04-06T04:53:51.617Z,2.22
2023-04-06T04:56:23.347Z,1.50
2023-04-06T04:58:54.823Z,2.10
2023-04-06T05:01:26.703Z,2.53
2023-04-06T05:03:58.164Z,2.37
2023-04-06T05:06:29.659Z,2.72
2023-04-06T05:09:01.113Z,1.83
2023-04-06T05:11:32.577Z,3.03
2023-04-06T05:14:04.021Z,1.60
2023-04-06T05:16:35.471Z,1.83
2023-04-06T05:19:07.060Z,2.50
2023-04-06T05:21:38.642Z,2.15
2023-04-06T05:24:10.074Z,1.83
2023-04-06T05:26:41.872Z,2.65
2023-04-06T05:29:13.360Z,2.57
2023-04-06T05:31:45.274Z,3.00
2023-04-06T05:34:16.793Z,2.83
2023-04-06T05:36:48.580Z,3.30
2023-04-06T05:39:20.337Z,2.05
2023-04-06T05:41:51.779Z,2.50
2023-04-06T05:44:23.581Z,2.17
2023-04-06T05:46:55.173Z,3.13
2023-04-06T05:49:27.121Z,2.80
2023-04-06T05:51:58.562Z,1.80
2023-04-06T05:54:30.027Z,2.58
2023-04-06T05:57:01.496Z,2.45
2023-04-06T05:59:33.103Z,1.58
2023-04-06T06:02:04.694Z,2.47
2023-04-06T06:04:36.236Z,1.90
2023-04-06T06:07:07.717Z,2.20
2023-04-06T06:09:39.531Z,2.03
2023-04-06T06:12:13.234Z,1.52
2023-04-06T06:14:46.268Z,2.10
2023-04-06T06:17:17.710Z,2.22
2023-04-06T06:19:49.505Z,2.08
2023-04-06T06:22:20.977Z,1.85
2023-04-06T06:24:52.724Z,2.08
2023-04-06T06:27:24.167Z,2.00
2023-04-06T06:29:55.974Z,2.28
2023-04-06T06:32:27.444Z,2.00
2023-04-06T06:34:58.957Z,1.63
2023-04-06T06:37:31.312Z,3.28
2023-04-06T06:40:02.860Z,2.00
2023-04-06T06:42:34.310Z,1.77
2023-04-06T06:45:05.786Z,2.00
2023-04-06T06:47:37.306Z,1.30
2023-04-06T06:50:08.834Z,1.85
2023-04-06T06:52:40.270Z,1.77
2023-04-06T06:55:12.056Z,1.90
2023-04-06T06:57:43.676Z,2.15
2023-04-06T07:00:15.604Z,2.00
2023-04-06T07:02:47.076Z,2.03
2023-04-06T07:05:27.530Z,2.42
2023-04-06T07:07:59.888Z,2.35
2023-04-06T07:10:31.377Z,1.70
2023-04-06T07:13:02.890Z,1.73
2023-04-06T07:15:34.359Z,2.00
2023-04-06T07:18:05.915Z,1.90
2023-04-06T07:20:37.792Z,1.92
2023-04-06T07:23:09.342Z,1.88
2023-04-06T07:25:40.995Z,1.58
2023-04-06T07:28:12.451Z,1.73
2023-04-06T07:30:44.216Z,1.90
2023-04-06T07:33:15.670Z,1.60
2023-04-06T07:35:47.479Z,1.73
2023-04-06T07:38:19.095Z,1.75
2023-04-06T07:40:50.857Z,1.67
2023-04-06T07:43:22.329Z,1.40
2023-04-06T07:45:54.231Z,1.23
2023-04-06T07:48:25.723Z,1.35
2023-04-06T07:50:57.510Z,1.45
2023-04-06T07:53:28.996Z,1.45
2023-04-06T07:56:00.858Z,1.35
2023-04-06T07:58:32.309Z,1.27
2023-04-06T08:01:04.149Z,1.20
2023-04-06T08:03:35.785Z,1.30
2023-04-06T08:06:07.720Z,1.30
2023-04-06T08:08:39.211Z,1.30
2023-04-06T08:11:11.078Z,1.40
2023-04-06T08:13:42.543Z,1.25
2023-04-06T08:16:14.302Z,1.08
2023-04-06T08:18:45.832Z,1.65
2023-04-06T08:21:17.628Z,1.77
2023-04-06T08:23:49.079Z,1.20
2023-04-06T08:26:20.834Z,1.63
2023-04-06T08:28:52.650Z,1.30
2023-04-06T08:31:24.131Z,1.30
2023-04-06T08:33:55.658Z,1.13
2023-04-06T08:36:27.102Z,1.20
2023-04-06T08:38:59.056Z,1.10
2023-04-06T08:41:30.512Z,1.45
2023-04-06T08:44:02.356Z,1.13
2023-04-06T08:46:33.946Z,1.00
2023-04-06T08:49:05.813Z,1.00
2023-04-06T08:51:37.294Z,0.82
2023-04-06T08:54:09.201Z,0.90
2023-04-06T08:56:40.794Z,0.93
2023-04-06T08:59:12.597Z,0.98
2023-04-06T09:01:44.133Z,0.68
2023-04-06T09:04:16.381Z,1.10
2023-04-06T09:06:48.390Z,0.85
2023-04-06T09:09:22.121Z,0.68
2023-04-06T09:11:54.965Z,0.70
2023-04-06T09:14:26.636Z,1.00
2023-04-06T09:16:58.089Z,0.80
2023-04-06T09:19:29.570Z,0.77
2023-04-06T09:22:01.027Z,0.52
2023-04-06T09:24:32.564Z,0.95
2023-04-06T09:27:04.025Z,0.77
2023-04-06T09:29:35.487Z,0.80
2023-04-06T09:32:07.014Z,0.57
2023-04-06T09:34:38.866Z,0.73
2023-04-06T09:37:10.311Z,0.93
2023-04-06T09:39:42.155Z,0.68
2023-04-06T09:42:13.610Z,0.50
2023-04-06T09:44:45.426Z,0.85
2023-04-06T09:47:17.003Z,0.75
2023-04-06T09:49:48.514Z,0.90
2023-04-06T09:52:20.368Z,0.57
2023-04-06T09:54:51.821Z,0.82
2023-04-06T09:57:23.393Z,0.75
2023-04-06T09:59:54.948Z,0.70
2023-04-06T10:02:26.902Z,0.85
2023-04-06T10:04:58.431Z,0.93
2023-04-06T10:07:29.913Z,0.65
2023-04-06T10:10:01.596Z,0.70
2023-04-06T10:12:33.132Z,0.90
2023-04-06T10:15:04.625Z,1.10
2023-04-06T10:17:36.123Z,0.70
2023-04-06T10:20:07.564Z,0.80
2023-04-06T10:22:39.064Z,0.73
2023-04-06T10:25:10.529Z,0.85
2023-04-06T10:27:42.305Z,0.80
2023-04-06T10:30:13.779Z,0.80
2023-04-06T10:32:48.141Z,1.00
2023-04-06T10:35:19.740Z,0.80
2023-04-06T10:37:51.501Z,0.95
2023-04-06T10:40:22.969Z,1.10
2023-04-06T10:42:54.811Z,0.98
2023-04-06T10:45:26.291Z,1.00
2023-04-06T10:47:58.114Z,1.00
2023-04-06T10:50:29.628Z,0.85
2023-04-06T10:53:01.292Z,0.93
2023-04-06T10:55:32.836Z,0.68
2023-04-06T10:58:04.495Z,0.80
2023-04-06T11:00:47.343Z,0.90
2023-04-06T11:03:22.221Z,0.98
2023-04-06T11:05:53.690Z,0.98
2023-04-06T11:08:25.521Z,0.88
2023-04-06T11:10:56.948Z,0.88
2023-04-06T11:13:28.760Z,1.05
2023-04-06T11:16:00.246Z,0.98
2023-04-06T11:18:31.728Z,0.80
2023-04-06T11:21:03.233Z,1.00
2023-04-06T11:23:34.704Z,0.68
2023-04-06T11:26:06.147Z,1.05
2023-04-06T11:28:38.280Z,1.02
2023-04-06T11:31:10.008Z,1.20
2023-04-06T11:33:41.823Z,1.30
2023-04-06T11:36:15.846Z,1.15
2023-04-06T11:38:48.278Z,0.90
2023-04-06T11:41:20.048Z,1.27
2023-04-06T11:43:51.502Z,1.02
2023-04-06T11:46:23.337Z,0.75
2023-04-06T11:48:54.828Z,1.10
2023-04-06T11:51:26.660Z,1.10
2023-04-06T11:53:58.109Z,1.20
2023-04-06T11:56:29.573Z,1.10
2023-04-06T11:59:01.086Z,0.80
2023-04-06T12:01:36.990Z,0.90
2023-04-06T12:04:10.635Z,0.85
2023-04-06T12:06:42.550Z,1.20
2023-04-06T12:09:14.019Z,1.30
2023-04-06T12:11:45.801Z,1.10
2023-04-06T12:14:17.305Z,1.27
2023-04-06T12:16:49.158Z,1.00
2023-04-06T12:19:20.683Z,1.30
2023-04-06T12:21:52.561Z,1.30
2023-04-06T12:24:24.033Z,1.30
2023-04-06T12:27:08.685Z,1.20
2023-04-06T12:29:41.200Z,1.05
2023-04-06T12:32:12.963Z,0.88
2023-04-06T12:34:44.438Z,1.00
2023-04-06T12:37:15.889Z,1.15
2023-04-06T12:39:47.336Z,1.30
2023-04-06T12:42:19.035Z,1.35
2023-04-06T12:44:50.503Z,1.25
2023-04-06T12:47:22.021Z,1.35
2023-04-06T12:49:53.514Z,1.40
2023-04-06T12:52:25.287Z,1.27
2023-04-06T12:54:56.747Z,1.38
2023-04-06T12:57:28.502Z,1.35
2023-04-06T13:00:00.060Z,1.35
2023-04-06T13:02:31.926Z,1.27
2023-04-06T13:05:03.525Z,1.20
2023-04-06T13:07:34.991Z,1.33
2023-04-06T13:10:06.438Z,1.13
2023-04-06T13:12:38.240Z,1.38
2023-04-06T13:15:09.697Z,1.15
2023-04-06T13:17:41.432Z,1.30
2023-04-06T13:20:12.909Z,1.30
2023-04-06T13:22:44.455Z,1.17
2023-04-06T13:25:16.276Z,1.48
2023-04-06T13:27:47.772Z,1.60
2023-04-06T13:30:19.565Z,1.70
2023-04-06T13:32:51.031Z,1.35
2023-04-06T13:35:22.550Z,1.45
2023-04-06T13:37:53.998Z,1.58
2023-04-06T13:40:25.621Z,1.50
2023-04-06T13:42:57.064Z,1.25
2023-04-06T13:45:28.539Z,1.38
2023-04-06T13:48:00.082Z,1.30
2023-04-06T13:50:31.574Z,1.65
2023-04-06T13:53:03.010Z,1.40
2023-04-06T13:55:34.468Z,1.10
2023-04-06T13:58:05.907Z,1.38
2023-04-06T14:00:37.771Z,1.20
2023-04-06T14:03:09.385Z,1.13
2023-04-06T14:05:41.238Z,1.25
2023-04-06T14:08:12.723Z,1.40
2023-04-06T14:10:44.430Z,1.42
2023-04-06T14:13:15.889Z,1.30
2023-04-06T14:15:47.704Z,1.20
2023-04-06T14:18:19.164Z,1.30
2023-04-06T14:20:50.810Z,1.20
2023-04-06T14:23:22.275Z,1.38
2023-04-06T14:25:54.042Z,1.15
2023-04-06T14:28:25.503Z,1.45
2023-04-06T14:30:57.406Z,1.30
2023-04-06T14:33:28.881Z,1.30
2023-04-06T14:36:00.671Z,1.40
2023-04-06T14:38:32.139Z,1.33
2023-04-06T14:41:03.792Z,1.17
2023-04-06T14:43:35.286Z,1.13
2023-04-06T14:46:07.047Z,1.35
2023-04-06T14:48:38.514Z,1.30
2023-04-06T14:51:10.297Z,1.30
2023-04-06T14:53:41.767Z,1.40
2023-04-06T14:56:13.828Z,1.17
2023-04-06T14:58:45.354Z,1.55
2023-04-06T15:01:17.182Z,1.25
2023-04-06T15:03:49.275Z,1.80
2023-04-06T15:06:21.596Z,0.95
2023-04-06T15:08:53.103Z,1.30
2023-04-06T15:11:24.920Z,1.50
2023-04-06T15:13:56.444Z,1.35
2023-04-06T15:16:28.037Z,1.50
2023-04-06T15:18:59.540Z,1.70
2023-04-06T15:21:31.010Z,1.33
2023-04-06T15:24:02.481Z,1.50
2023-04-06T15:26:33.959Z,1.30
2023-04-06T15:29:05.426Z,1.33
2023-04-06T15:31:38.802Z,1.65
2023-04-06T15:34:10.333Z,1.27
2023-04-06T15:36:41.974Z,1.08
2023-04-06T15:39:13.408Z,1.10
2023-04-06T15:41:45.212Z,1.50
2023-04-06T15:44:16.692Z,1.10
2023-04-06T15:46:48.365Z,1.10
2023-04-06T15:49:19.821Z,1.38
2023-04-06T15:51:51.529Z,1.20
2023-04-06T15:54:23.284Z,1.05
2023-04-06T15:56:54.718Z,1.40
2023-04-06T15:59:26.239Z,0.93
2023-04-06T16:01:57.785Z,0.93
2023-04-06T16:04:29.446Z,1.00
2023-04-06T16:07:01.008Z,1.17
2023-04-06T16:09:32.544Z,1.10
2023-04-06T16:12:04.026Z,0.95
2023-04-06T16:14:35.585Z,0.93
2023-04-06T16:17:07.048Z,0.80
2023-04-06T16:19:38.557Z,0.85
2023-04-06T16:22:10.027Z,0.90
2023-04-06T16:24:41.562Z,0.90
2023-04-06T16:27:13.026Z,0.82
2023-04-06T16:29:44.700Z,0.70
2023-04-06T16:32:16.230Z,0.90
2023-04-06T16:34:48.009Z,0.93
2023-04-06T16:37:19.481Z,1.02
2023-04-06T16:39:51.281Z,0.70
2023-04-06T16:42:22.729Z,0.90
2023-04-06T16:44:54.536Z,0.80
2023-04-06T16:47:26.021Z,0.80
2023-04-06T16:50:05.979Z,0.60
2023-04-06T16:52:37.848Z,1.10
2023-04-06T16:55:09.755Z,0.90
2023-04-06T16:57:41.606Z,0.65
2023-04-06T17:00:13.125Z,0.57
2023-04-06T17:02:44.682Z,1.25
2023-04-06T17:05:16.482Z,1.00
2023-04-06T17:07:47.913Z,0.77
2023-04-06T17:10:24.246Z,1.00
2023-04-06T17:13:05.172Z,0.98
2023-04-06T17:15:36.630Z,0.80
2023-04-06T17:18:08.112Z,0.82
2023-04-06T17:20:39.559Z,0.90
2023-04-06T17:23:11.359Z,0.80
2023-04-06T17:25:42.820Z,0.90
2023-04-06T17:28:14.282Z,1.10
2023-04-06T17:30:45.789Z,0.93
2023-04-06T17:33:17.277Z,0.68
2023-04-06T17:35:48.793Z,1.00
2023-04-06T17:38:20.667Z,0.80
2023-04-06T17:40:52.208Z,0.80
2023-04-06T17:43:23.874Z,0.73
2023-04-06T17:45:55.385Z,0.90
2023-04-06T17:48:27.209Z,1.27
2023-04-06T17:50:58.663Z,1.20
2023-04-06T17:53:30.180Z,0.70
2023-04-06T17:56:01.658Z,1.42
2023-04-06T17:58:33.142Z,1.45
2023-04-06T18:01:04.589Z,0.88
2023-04-06T18:03:36.248Z,1.52
2023-04-06T18:06:07.761Z,1.60
2023-04-06T18:08:39.407Z,1.05
2023-04-06T18:11:10.893Z,1.30
2023-04-06T18:13:42.758Z,1.40
2023-04-06T18:16:14.311Z,1.50
2023-04-06T18:18:45.806Z,1.20
2023-04-06T18:21:17.274Z,0.90
2023-04-06T18:23:48.756Z,0.93
2023-04-06T18:26:20.206Z,1.45
2023-04-06T18:28:51.765Z,0.95
2023-04-06T18:31:23.264Z,1.17
2023-04-06T18:33:55.173Z,0.95
2023-04-06T18:36:32.921Z,1.20
2023-04-06T18:39:04.762Z,1.42
2023-04-06T18:41:36.225Z,1.50
2023-04-06T18:44:08.020Z,1.30
2023-04-06T18:46:39.525Z,1.25
2023-04-06T18:49:11.096Z,1.13
2023-04-06T18:51:42.582Z,1.30
2023-04-06T18:54:14.302Z,1.30
2023-04-06T18:56:45.733Z,1.00
2023-04-06T18:59:17.200Z,1.45
2023-04-06T19:01:48.874Z,2.00
2023-04-06T19:04:20.641Z,1.40
2023-04-06T19:06:52.636Z,1.48
2023-04-06T19:09:24.094Z,1.40
2023-04-06T19:11:55.991Z,1.48
2023-04-06T19:14:27.448Z,0.90
2023-04-06T19:16:59.589Z,1.52
2023-04-06T19:19:31.098Z,1.52
2023-04-06T19:22:02.596Z,1.00
2023-04-06T19:24:34.106Z,2.13
2023-04-06T19:27:05.771Z,1.48
2023-04-06T19:29:37.226Z,1.27
2023-04-06T19:32:08.918Z,1.33
2023-04-06T19:34:40.359Z,1.67
2023-04-06T19:37:12.157Z,1.23
2023-04-06T19:39:43.616Z,1.73
2023-04-06T19:42:15.488Z,1.30
2023-04-06T19:44:46.993Z,1.48
2023-04-06T19:47:18.487Z,1.50
2023-04-06T19:49:49.962Z,1.23
2023-04-06T19:52:21.444Z,1.10
2023-04-06T19:54:52.922Z,1.23
2023-04-06T19:57:24.704Z,1.50
2023-04-06T19:59:56.179Z,1.40
2023-04-06T20:02:28.174Z,1.52
2023-04-06T20:04:59.762Z,2.03
2023-04-06T20:07:31.249Z,1.40
2023-04-06T20:10:02.690Z,2.20
2023-04-06T20:12:34.154Z,2.17
2023-04-06T20:15:05.589Z,2.08
2023-04-06T20:17:37.412Z,1.90
2023-04-06T20:20:08.901Z,2.25
2023-04-06T20:22:40.357Z,1.70
2023-04-06T20:25:11.813Z,1.70
2023-04-06T20:27:43.694Z,2.42
2023-04-06T20:30:15.291Z,2.22
2023-04-06T20:32:47.360Z,1.92
2023-04-06T20:35:18.812Z,1.40
2023-04-06T20:37:50.630Z,1.52
2023-04-06T20:40:22.073Z,2.20
2023-04-06T20:42:53.521Z,1.48
2023-04-06T20:45:24.998Z,1.63
2023-04-06T20:47:56.814Z,1.50
2023-04-06T20:50:28.337Z,1.40
2023-04-06T20:52:59.794Z,1.65
2023-04-06T20:55:31.311Z,1.50
2023-04-06T20:58:02.928Z,2.55
2023-04-06T21:00:34.405Z,2.03
2023-04-06T21:03:06.308Z,1.60
2023-04-06T21:05:37.846Z,2.13
2023-04-06T21:08:09.625Z,1.58
2023-04-06T21:10:41.120Z,2.38
2023-04-06T21:13:13.087Z,1.67
2023-04-06T21:15:44.625Z,1.60
2023-04-06T21:18:16.205Z,1.83
2023-04-06T21:20:47.692Z,1.70
2023-04-06T21:23:19.152Z,1.52
2023-04-06T21:25:50.778Z,1.55
2023-04-06T21:28:22.252Z,1.73
2023-04-06T21:30:54.047Z,1.80
2023-04-06T21:33:25.526Z,1.30
2023-04-06T21:35:56.998Z,2.15
2023-04-06T21:38:28.451Z,2.38
2023-04-06T21:41:00.230Z,2.05
2023-04-06T21:43:31.756Z,1.63
2023-04-06T21:46:03.497Z,1.55
2023-04-06T21:48:34.962Z,1.77
2023-04-06T21:51:06.825Z,1.95
2023-04-06T21:53:38.280Z,1.45
2023-04-06T21:56:09.899Z,1.75
2023-04-06T21:58:41.351Z,2.30
2023-04-06T22:01:12.801Z,2.03
2023-04-06T22:03:44.362Z,1.38
2023-04-06T22:06:16.272Z,1.02
2023-04-06T22:08:47.724Z,1.58
2023-04-06T22:11:19.392Z,2.35
2023-04-06T22:13:50.934Z,2.25
2023-04-06T22:16:22.613Z,2.58
2023-04-06T22:18:54.204Z,1.83
2023-04-06T22:21:25.904Z,1.80
2023-04-06T22:23:57.352Z,1.67
2023-04-06T22:26:28.793Z,1.52
2023-04-06T22:29:00.233Z,2.33
2023-04-06T22:31:31.776Z,1.45
2023-04-06T22:34:03.235Z,2.80
2023-04-06T22:36:34.687Z,2.00
2023-04-06T22:39:06.155Z,2.08
2023-04-06T22:41:37.638Z,1.70
2023-04-06T22:44:09.095Z,1.50
2023-04-06T22:46:41.012Z,1.95
2023-04-06T22:49:12.512Z,2.00
2023-04-06T22:51:44.315Z,1.95
2023-04-06T22:54:15.763Z,1.83
2023-04-06T22:56:47.633Z,2.20
2023-04-06T22:59:19.112Z,2.00
2023-04-06T23:01:50.851Z,1.92
2023-04-06T23:04:22.395Z,1.60
2023-04-06T23:06:53.976Z,1.63
2023-04-06T23:09:25.426Z,1.48
2023-04-06T23:11:57.192Z,1.77
2023-04-06T23:14:28.709Z,1.92
2023-04-06T23:17:00.726Z,1.20
2023-04-06T23:19:32.248Z,2.13
2023-04-06T23:22:03.738Z,1.77
2023-04-06T23:24:35.222Z,1.50
2023-04-06T23:27:06.650Z,1.85
2023-04-06T23:29:38.185Z,1.83
2023-04-06T23:32:09.734Z,1.75
2023-04-06T23:34:41.615Z,1.88
2023-04-06T23:37:13.122Z,1.77
2023-04-06T23:39:44.947Z,2.13
2023-04-06T23:42:16.453Z,2.05
2023-04-06T23:44:48.241Z,1.90
2023-04-06T23:47:19.719Z,2.33
2023-04-06T23:49:51.564Z,2.05
2023-04-06T23:52:23.029Z,1.45
2023-04-06T23:54:54.504Z,1.77
2023-04-06T23:57:25.939Z,1.77
2023-04-06T23:59:57.584Z,2.28
